Time;durP1;ratioP1;P1;durP2;ratioP2;P2;SDS_P1;SDS_P2;PMS_P1;PMS_P2;Temp;Humidity;BMP_temperature;BMP_pressure;BME280_temperature;BME280_humidity;BME280_pressure;Samples;Min_cycle;Max_cycle;Signal;HPM_P1;HPM_P2
2023/03/05 00:01:55;;;;;;;12.55;3.25;;;;;;;4.53;83.47;102212.22;5109839;27;20485;-58
2023/03/05 00:04:22;;;;;;;9.82;2.55;;;;;;;4.54;83.97;102215.72;5117238;27;20114;-57
2023/03/05 00:06:47;;;;;;;15.18;3.40;;;;;;;4.53;84.14;102213.97;5114377;28;20031;-58
2023/03/05 00:09:13;;;;;;;10.63;3.22;;;;;;;4.55;84.43;102218.28;5114898;27;20027;-57
2023/03/05 00:11:39;;;;;;;11.68;3.53;;;;;;;4.55;84.58;102213.03;5114709;27;20026;-58
2023/03/05 00:14:05;;;;;;;14.18;3.10;;;;;;;4.55;84.51;102218.28;5109161;27;20037;-57
2023/03/05 00:16:32;;;;;;;11.48;3.17;;;;;;;4.54;84.86;102213.94;5116722;27;20022;-58
2023/03/05 00:18:59;;;;;;;12.48;3.13;;;;;;;4.51;84.67;102214.00;5119909;27;20019;-58
2023/03/05 00:21:35;;;;;;;11.45;3.15;;;;;;;4.50;85.08;102211.47;5115325;27;20034;-58
2023/03/05 00:24:03;;;;;;;9.00;2.60;;;;;;;4.45;85.42;102203.69;5113289;28;20035;-56
2023/03/05 00:26:29;;;;;;;12.27;3.60;;;;;;;4.48;85.14;102207.97;5113965;27;20068;-58
2023/03/05 00:28:56;;;;;;;17.95;3.53;;;;;;;4.42;85.12;102209.03;5104184;27;20016;-57
2023/03/05 00:31:25;;;;;;;9.85;2.88;;;;;;;4.44;85.32;102212.47;5106722;27;20114;-58
2023/03/05 00:33:54;;;;;;;14.43;3.20;;;;;;;4.40;85.31;102208.22;5117557;27;20562;-56
2023/03/05 00:36:20;;;;;;;10.27;2.97;;;;;;;4.40;85.67;102206.44;5114768;27;20113;-57
2023/03/05 00:38:45;;;;;;;12.18;3.28;;;;;;;4.41;85.76;102207.31;5111192;27;20084;-58
2023/03/05 00:41:11;;;;;;;12.32;3.15;;;;;;;4.39;85.80;102198.59;5115085;27;20494;-59
2023/03/05 00:43:36;;;;;;;14.75;3.13;;;;;;;4.34;85.70;102195.25;5114365;27;20059;-56
2023/03/05 00:46:02;;;;;;;13.90;3.30;;;;;;;4.36;86.05;102185.53;5114134;27;20032;-58
2023/03/05 00:48:27;;;;;;;16.02;3.40;;;;;;;4.35;86.10;102187.31;5116121;27;20036;-58
2023/03/05 00:50:52;;;;;;;11.57;3.55;;;;;;;4.36;86.51;102183.75;5109740;27;20039;-58
2023/03/05 00:53:18;;;;;;;11.07;3.25;;;;;;;4.35;85.71;102179.41;5114161;27;20027;-58
2023/03/05 00:55:43;;;;;;;9.70;3.55;;;;;;;4.33;86.05;102180.34;5113848;27;20041;-58
2023/03/05 00:58:09;;;;;;;9.88;3.17;;;;;;;4.32;86.19;102189.16;5111710;27;20022;-57
2023/03/05 01:00:35;;;;;;;18.63;3.67;;;;;;;4.29;86.40;102186.63;5111382;27;20034;-58
2023/03/05 01:03:00;;;;;;;10.95;3.15;;;;;;;4.28;86.69;102187.50;5100749;28;20429;-58
2023/03/05 01:05:25;;;;;;;11.93;3.35;;;;;;;4.28;86.87;102177.88;5110593;28;20073;-59
2023/03/05 01:07:52;;;;;;;16.23;3.53;;;;;;;4.26;87.49;102177.03;5103585;28;20374;-58
2023/03/05 01:10:19;;;;;;;11.50;3.80;;;;;;;4.27;87.47;102176.16;5110868;28;20084;-57
2023/03/05 01:12:44;;;;;;;11.48;3.78;;;;;;;4.24;87.33;102171.81;5112549;28;20035;-58
2023/03/05 01:15:09;;;;;;;12.38;3.58;;;;;;;4.23;87.77;102169.22;5109184;28;20041;-58
2023/03/05 01:17:35;;;;;;;11.05;3.55;;;;;;;4.23;87.96;102163.97;5112041;28;20084;-58
2023/03/05 01:20:00;;;;;;;11.32;3.40;;;;;;;4.24;88.03;102166.56;5106713;27;20428;-57
2023/03/05 01:22:25;;;;;;;17.63;3.85;;;;;;;4.23;88.37;102163.97;5112059;27;20085;-58
2023/03/05 01:24:51;;;;;;;10.13;3.50;;;;;;;4.23;88.25;102156.97;5112154;28;20060;-58
2023/03/05 01:27:16;;;;;;;10.10;2.92;;;;;;;4.23;88.37;102156.97;5112185;28;20020;-58
2023/03/05 01:29:41;;;;;;;16.15;3.28;;;;;;;4.21;88.43;102152.66;5112469;28;20053;-58
2023/03/05 01:32:07;;;;;;;14.02;3.63;;;;;;;4.16;88.78;102150.13;5111973;28;20027;-58
2023/03/05 01:34:32;;;;;;;12.00;3.47;;;;;;;4.14;87.80;102143.22;5111572;28;20492;-56
2023/03/05 01:36:57;;;;;;;14.55;3.40;;;;;;;4.13;88.25;102142.38;5115527;27;20485;-57
2023/03/05 01:39:22;;;;;;;15.55;3.95;;;;;;;4.12;88.84;102142.41;5110057;28;20072;-56
2023/03/05 01:41:48;;;;;;;10.60;3.15;;;;;;;4.10;88.81;102134.56;5113051;28;20052;-57
2023/03/05 01:44:24;;;;;;;14.48;2.97;;;;;;;4.12;88.85;102131.88;5111822;28;20466;-57
2023/03/05 01:46:50;;;;;;;12.05;3.38;;;;;;;4.07;88.95;102126.75;5110095;28;20034;-58
2023/03/05 01:49:26;;;;;;;13.77;3.75;;;;;;;4.05;89.58;102125.94;5111552;28;20032;-56
2023/03/05 01:52:01;;;;;;;14.23;3.50;;;;;;;4.04;89.37;102117.19;5115443;28;20027;-58
2023/03/05 01:54:32;;;;;;;9.25;2.67;;;;;;;4.03;89.59;102114.59;5109275;28;20039;-58
2023/03/05 01:57:03;;;;;;;11.30;3.17;;;;;;;4.02;89.29;102110.25;5111563;28;20038;-58
2023/03/05 01:59:29;;;;;;;9.30;2.78;;;;;;;4.01;89.78;102106.78;5114575;28;20035;-57
2023/03/05 02:01:57;;;;;;;14.15;2.55;;;;;;;4.00;89.89;102099.78;5111788;28;20067;-57
2023/03/05 02:04:29;;;;;;;8.65;2.80;;;;;;;4.00;89.93;102098.94;5111230;28;20110;-57
2023/03/05 02:06:55;;;;;;;9.85;2.80;;;;;;;4.01;89.80;102098.88;5107451;28;20410;-58
2023/03/05 02:09:22;;;;;;;14.75;3.33;;;;;;;3.98;89.95;102093.72;5109822;28;20024;-58
2023/03/05 02:11:48;;;;;;;6.53;2.38;;;;;;;3.97;89.96;102085.88;5111847;28;20038;-57
2023/03/05 02:14:13;;;;;;;10.52;2.47;;;;;;;3.95;90.12;102085.06;5111382;28;20031;-58
2023/03/05 02:16:39;;;;;;;12.88;2.95;;;;;;;3.93;90.39;102084.22;5112239;28;20019;-57
2023/03/05 02:19:09;;;;;;;10.60;2.47;;;;;;;3.89;90.28;102075.56;5112438;28;20541;-56
2023/03/05 02:21:43;;;;;;;9.40;2.97;;;;;;;3.91;90.61;102075.53;5111431;28;20024;-57
2023/03/05 02:24:11;;;;;;;7.70;2.78;;;;;;;3.88;90.42;102077.34;5103235;28;20077;-58
2023/03/05 02:26:37;;;;;;;8.50;3.22;;;;;;;3.86;90.77;102075.66;5111673;28;20492;-57
2023/03/05 02:29:07;;;;;;;10.50;2.88;;;;;;;3.84;91.18;102070.44;5111673;28;20102;-58
2023/03/05 02:31:32;;;;;;;6.72;2.45;;;;;;;3.84;90.68;102069.59;5111155;28;20378;-58
2023/03/05 02:33:57;;;;;;;9.80;2.75;;;;;;;3.83;91.32;102063.47;5114289;28;20015;-57
2023/03/05 02:36:24;;;;;;;15.85;3.25;;;;;;;3.82;90.78;102063.50;5115037;27;20478;-56
2023/03/05 02:38:49;;;;;;;8.43;3.00;;;;;;;3.81;91.06;102062.63;5114985;28;20059;-57
2023/03/05 02:41:14;;;;;;;10.98;3.00;;;;;;;3.81;91.04;102062.63;5114580;28;20608;-57
2023/03/05 02:43:40;;;;;;;12.13;4.07;;;;;;;3.82;90.79;102058.25;5116607;27;20020;-57
2023/03/05 02:46:06;;;;;;;8.15;3.08;;;;;;;3.80;91.40;102052.19;5115326;27;20084;-58
2023/03/05 02:48:32;;;;;;;9.52;3.50;;;;;;;3.80;91.15;102047.78;5115689;27;20063;-58
2023/03/05 02:50:58;;;;;;;10.68;2.97;;;;;;;3.79;91.39;102046.06;5108356;27;20051;-57
2023/03/05 02:53:25;;;;;;;9.13;3.20;;;;;;;3.79;90.99;102046.06;5115841;27;20537;-56
2023/03/05 02:55:50;;;;;;;11.68;3.08;;;;;;;3.78;90.96;102044.34;5106773;28;20456;-57
2023/03/05 02:58:16;;;;;;;9.77;3.22;;;;;;;3.77;90.72;102032.09;5115487;27;20039;-57
2023/03/05 03:00:42;;;;;;;13.13;2.83;;;;;;;3.76;91.45;102030.38;5106156;28;20019;-57
2023/03/05 03:03:08;;;;;;;9.57;2.95;;;;;;;3.74;91.58;102026.94;5114486;28;20027;-58
2023/03/05 03:05:34;;;;;;;10.38;3.22;;;;;;;3.72;91.80;102026.13;5115058;27;20095;-58
2023/03/05 03:08:00;;;;;;;9.32;3.00;;;;;;;3.73;91.53;102019.09;5109066;28;20028;-58
2023/03/05 03:10:25;;;;;;;11.88;3.25;;;;;;;3.70;92.28;102023.53;5114993;27;20016;-57
2023/03/05 03:12:50;;;;;;;9.40;2.95;;;;;;;3.68;91.70;102019.22;5114718;27;20048;-58
2023/03/05 03:15:16;;;;;;;10.07;3.13;;;;;;;3.68;91.73;102017.47;5114977;27;20032;-58
2023/03/05 03:17:41;;;;;;;10.63;3.58;;;;;;;3.66;92.06;102015.78;5115677;27;20020;-58
2023/03/05 03:20:09;;;;;;;13.98;3.95;;;;;;;3.63;92.16;102013.25;5115062;28;20032;-56
2023/03/05 03:22:34;;;;;;;8.45;3.30;;;;;;;3.62;92.35;102006.28;5115046;27;20054;-57
2023/03/05 03:25:00;;;;;;;13.73;3.63;;;;;;;3.60;92.55;102005.47;5114740;28;20031;-58
2023/03/05 03:27:26;;;;;;;9.38;3.58;;;;;;;3.59;92.53;101998.47;5114478;28;20096;-58
2023/03/05 03:29:51;;;;;;;9.55;3.30;;;;;;;3.56;92.27;102007.31;5114989;28;20474;-57
2023/03/05 03:32:17;;;;;;;12.30;3.30;;;;;;;3.53;92.13;101996.91;5113948;27;20103;-57
2023/03/05 03:34:43;;;;;;;15.45;3.63;;;;;;;3.51;92.63;101990.81;5108202;28;20030;-57
2023/03/05 03:37:09;;;;;;;12.30;3.67;;;;;;;3.48;92.67;101981.28;5110857;27;20016;-55
2023/03/05 03:39:34;;;;;;;9.95;3.60;;;;;;;3.44;92.42;101979.63;5109300;27;20031;-58
2023/03/05 03:42:00;;;;;;;8.80;3.92;;;;;;;3.42;92.68;101985.84;5114626;28;20044;-58
2023/03/05 03:44:25;;;;;;;9.63;3.30;;;;;;;3.39;92.84;101981.53;5114476;27;20481;-58
2023/03/05 03:46:51;;;;;;;12.68;3.90;;;;;;;3.38;92.80;101979.81;5117174;27;20031;-58
2023/03/05 03:49:22;;;;;;;12.70;4.35;;;;;;;3.37;92.92;101979.84;5116503;27;20031;-58
2023/03/05 03:51:48;;;;;;;15.75;4.20;;;;;;;3.34;92.64;101976.38;5110630;27;20035;-58
2023/03/05 03:54:15;;;;;;;10.18;3.88;;;;;;;3.32;92.78;101978.22;5113268;27;20036;-58
2023/03/05 03:56:41;;;;;;;10.13;4.35;;;;;;;3.28;93.45;101975.69;5114105;28;20035;-58
2023/03/05 03:59:06;;;;;;;12.32;4.18;;;;;;;3.27;93.34;101981.88;5114202;28;20027;-59
2023/03/05 04:01:31;;;;;;;12.55;4.88;;;;;;;3.24;93.67;101969.69;5114334;27;20028;-56
2023/03/05 04:03:57;;;;;;;12.35;4.18;;;;;;;3.24;93.38;101966.19;5118941;27;20026;-58
2023/03/05 04:06:22;;;;;;;12.85;4.22;;;;;;;3.24;93.63;101966.19;5105877;28;20122;-57
2023/03/05 04:08:47;;;;;;;11.80;3.97;;;;;;;3.22;93.92;101962.75;5117264;27;20107;-58
2023/03/05 04:11:14;;;;;;;12.30;4.50;;;;;;;3.23;93.70;101961.84;5113236;28;20776;-58
2023/03/05 04:13:39;;;;;;;13.77;4.45;;;;;;;3.22;93.74;101962.75;5117425;27;20397;-58
2023/03/05 04:16:05;;;;;;;15.60;4.57;;;;;;;3.21;93.84;101958.41;5118074;27;20032;-58
2023/03/05 04:18:31;;;;;;;10.18;4.40;;;;;;;3.22;93.64;101953.13;5115370;27;20019;-58
2023/03/05 04:20:56;;;;;;;14.38;4.88;;;;;;;3.20;93.62;101939.19;5105329;28;20030;-58
2023/03/05 04:23:21;;;;;;;12.90;4.72;;;;;;;3.21;93.81;101948.75;5106046;27;20539;-58
2023/03/05 04:25:46;;;;;;;10.02;4.47;;;;;;;3.20;93.91;101938.28;5113111;27;20015;-56
2023/03/05 04:28:12;;;;;;;17.13;5.13;;;;;;;3.20;94.02;101939.19;5104681;28;20419;-54
2023/03/05 04:30:37;;;;;;;11.38;4.45;;;;;;;3.19;93.80;101939.22;5113760;28;20031;-55
2023/03/05 04:33:03;;;;;;;17.15;4.57;;;;;;;3.17;93.87;101935.78;5113046;28;20030;-57
2023/03/05 04:35:28;;;;;;;14.63;4.60;;;;;;;3.18;94.08;101935.75;5113523;27;20031;-58
2023/03/05 04:37:53;;;;;;;11.68;4.45;;;;;;;3.18;94.11;101929.59;5110589;28;20036;-55
2023/03/05 04:40:19;;;;;;;15.05;4.65;;;;;;;3.16;93.74;101924.41;5107090;27;20032;-57
2023/03/05 04:42:44;;;;;;;10.25;4.72;;;;;;;3.15;94.21;101926.19;5109479;27;20016;-57
2023/03/05 04:45:11;;;;;;;16.00;5.70;;;;;;;3.14;94.53;101923.59;5113223;28;20038;-57
2023/03/05 04:47:37;;;;;;;13.40;5.32;;;;;;;3.14;94.24;101928.84;5109352;28;20019;-57
2023/03/05 04:50:04;;;;;;;14.35;5.38;;;;;;;3.10;95.10;101924.59;5093191;27;20028;-57
2023/03/05 04:52:29;;;;;;;13.15;5.57;;;;;;;3.11;94.70;101919.31;5113137;27;20051;-59
2023/03/05 04:54:54;;;;;;;12.00;4.90;;;;;;;3.09;95.03;101921.09;5113339;28;20106;-54
2023/03/05 04:57:20;;;;;;;15.75;5.35;;;;;;;3.10;95.07;101917.56;5113001;27;20079;-55
2023/03/05 04:59:45;;;;;;;11.63;5.38;;;;;;;3.10;95.27;101916.72;5114030;27;20542;-58
2023/03/05 05:02:10;;;;;;;10.68;5.45;;;;;;;3.08;95.29;101914.13;5113834;27;20501;-57
2023/03/05 05:04:36;;;;;;;16.83;5.50;;;;;;;3.08;95.33;101911.50;5109190;27;20039;-58
2023/03/05 05:07:01;;;;;;;12.40;5.15;;;;;;;3.10;95.51;101912.31;5113703;27;20390;-57
2023/03/05 05:09:27;;;;;;;9.38;5.10;;;;;;;3.11;95.45;101902.66;5113120;28;20023;-57
2023/03/05 05:11:52;;;;;;;15.40;5.93;;;;;;;3.08;95.46;101902.75;5110980;27;20103;-58
2023/03/05 05:14:18;;;;;;;14.20;5.90;;;;;;;3.09;95.84;101896.63;5106913;27;20027;-58
2023/03/05 05:16:43;;;;;;;10.57;5.75;;;;;;;3.08;95.27;101898.38;5114748;27;20258;-55
2023/03/05 05:19:09;;;;;;;13.98;5.70;;;;;;;3.09;95.64;101894.84;5111912;28;20039;-57
2023/03/05 05:21:34;;;;;;;10.93;5.32;;;;;;;3.09;95.99;101905.34;5112238;28;20015;-56
2023/03/05 05:23:59;;;;;;;12.80;5.95;;;;;;;3.11;95.67;101897.41;5112772;28;20395;-57
2023/03/05 05:26:25;;;;;;;13.30;6.00;;;;;;;3.10;95.90;101896.56;5112627;28;20077;-57
2023/03/05 05:28:50;;;;;;;16.17;6.43;;;;;;;3.11;95.76;101895.69;5112005;28;20520;-57
2023/03/05 05:31:17;;;;;;;14.25;6.30;;;;;;;3.10;96.04;101899.19;5112354;28;20034;-58
2023/03/05 05:33:42;;;;;;;12.75;5.53;;;;;;;3.11;96.00;101892.16;5112372;28;20027;-58
2023/03/05 05:36:11;;;;;;;12.25;6.53;;;;;;;3.08;96.19;101895.75;5100864;28;20359;-57
2023/03/05 05:38:37;;;;;;;14.63;5.78;;;;;;;3.11;96.40;101893.06;5112633;28;20448;-59
2023/03/05 05:41:09;;;;;;;15.40;6.68;;;;;;;3.10;97.20;101891.31;5111618;28;20043;-57
2023/03/05 05:43:34;;;;;;;12.35;5.90;;;;;;;3.11;96.52;101893.06;5112282;28;20069;-56
2023/03/05 05:46:01;;;;;;;14.10;6.13;;;;;;;3.10;97.04;101891.31;5111428;28;20452;-56
2023/03/05 05:48:31;;;;;;;14.40;6.20;;;;;;;3.09;97.53;101884.34;5102683;28;20115;-58
2023/03/05 05:50:57;;;;;;;14.07;6.88;;;;;;;3.10;97.85;101891.31;5109047;28;20020;-58
2023/03/05 05:53:24;;;;;;;13.73;6.47;;;;;;;3.09;98.04;101879.09;5112154;28;20118;-57
2023/03/05 05:55:50;;;;;;;13.10;6.22;;;;;;;3.09;98.95;101886.97;5090792;28;20050;-57
2023/03/05 05:58:15;;;;;;;12.05;6.53;;;;;;;3.08;98.87;101880.00;5111779;28;20031;-57
2023/03/05 06:00:40;;;;;;;14.10;5.65;;;;;;;3.08;99.44;101876.50;5112298;28;20019;-58
2023/03/05 06:03:06;;;;;;;13.52;6.22;;;;;;;3.08;99.10;101872.13;5111686;28;20473;-56
2023/03/05 06:05:32;;;;;;;14.93;6.03;;;;;;;3.08;99.06;101869.50;5100686;28;20026;-58
2023/03/05 06:07:57;;;;;;;14.98;6.65;;;;;;;3.07;99.36;101866.94;5114864;28;20023;-57
2023/03/05 06:10:22;;;;;;;15.05;6.85;;;;;;;3.05;99.40;101861.72;5105910;28;20449;-57
2023/03/05 06:12:48;;;;;;;10.50;6.38;;;;;;;3.04;99.69;101856.50;5117350;27;20016;-57
2023/03/05 06:15:13;;;;;;;12.50;6.40;;;;;;;3.04;99.90;101860.00;5116257;28;20461;-60
2023/03/05 06:17:38;;;;;;;16.10;6.45;;;;;;;3.03;99.96;101855.66;5117843;27;20382;-55
2023/03/05 06:20:05;;;;;;;12.65;6.10;;;;;;;3.04;99.73;101853.88;5111273;28;20157;-58
2023/03/05 06:22:31;;;;;;;16.13;6.13;;;;;;;3.06;99.78;101857.31;5110181;27;20048;-58
2023/03/05 06:24:56;;;;;;;12.88;6.18;;;;;;;3.06;100.00;101852.06;5115423;27;20063;-58
2023/03/05 06:27:21;;;;;;;14.60;6.70;;;;;;;3.06;100.00;101852.94;5116735;27;20020;-57
2023/03/05 06:29:50;;;;;;;14.75;6.45;;;;;;;3.07;99.70;101862.53;5105546;27;20045;-54
2023/03/05 06:32:15;;;;;;;16.52;6.55;;;;;;;3.07;99.69;101853.81;5116478;27;20392;-57
2023/03/05 06:34:41;;;;;;;12.90;6.28;;;;;;;3.06;99.76;101859.94;5102743;27;20027;-55
2023/03/05 06:37:06;;;;;;;15.55;6.28;;;;;;;3.05;100.00;101855.59;5116997;27;20031;-58
2023/03/05 06:39:32;;;;;;;13.57;6.07;;;;;;;3.04;100.00;101859.13;5116693;27;20026;-58
2023/03/05 06:41:57;;;;;;;14.13;6.22;;;;;;;3.04;100.00;101859.13;5100689;27;20445;-57
2023/03/05 06:44:22;;;;;;;10.98;5.95;;;;;;;3.04;100.00;101862.63;5116733;27;20019;-57
2023/03/05 06:46:47;;;;;;;10.27;6.03;;;;;;;3.06;100.00;101855.53;5116922;27;20043;-58
2023/03/05 06:49:13;;;;;;;10.35;5.90;;;;;;;3.06;100.00;101859.94;5115455;27;20031;-57
2023/03/05 06:51:39;;;;;;;9.77;6.10;;;;;;;3.05;100.00;101856.47;5112359;27;20074;-57
2023/03/05 06:54:14;;;;;;;14.73;5.72;;;;;;;3.07;100.00;101856.44;5108581;27;20035;-58
2023/03/05 06:56:41;;;;;;;8.90;4.90;;;;;;;3.06;100.00;101854.69;5116522;27;20051;-59
2023/03/05 06:59:07;;;;;;;9.23;4.80;;;;;;;3.07;100.00;101854.66;5116659;27;20434;-58
2023/03/05 07:01:33;;;;;;;9.43;4.68;;;;;;;3.08;100.00;101856.38;5104290;27;20119;-57
2023/03/05 07:04:01;;;;;;;8.50;5.03;;;;;;;3.09;100.00;101857.25;5115815;27;20038;-58
2023/03/05 07:06:27;;;;;;;8.25;4.53;;;;;;;3.09;100.00;101860.72;5116510;27;20028;-58
2023/03/05 07:08:57;;;;;;;10.13;5.00;;;;;;;3.09;100.00;101860.72;5116429;27;20396;-58
2023/03/05 07:11:23;;;;;;;8.40;5.18;;;;;;;3.10;100.00;101864.22;5116199;27;20489;-58
2023/03/05 07:13:50;;;;;;;12.25;5.55;;;;;;;3.11;100.00;101858.94;5116608;27;20103;-57
2023/03/05 07:16:18;;;;;;;8.82;4.80;;;;;;;3.12;100.00;101858.00;5117705;27;20023;-57
2023/03/05 07:18:44;;;;;;;7.40;4.95;;;;;;;3.16;100.00;101850.91;5114870;27;20027;-57
2023/03/05 07:21:15;;;;;;;7.95;5.13;;;;;;;3.18;100.00;101854.38;5112723;28;20420;-58
2023/03/05 07:23:40;;;;;;;9.43;4.63;;;;;;;3.19;100.00;101849.97;5113855;28;20039;-57
2023/03/05 07:26:06;;;;;;;9.00;4.30;;;;;;;3.22;100.00;101842.00;5112732;27;20079;-56
2023/03/05 07:28:32;;;;;;;12.93;4.68;;;;;;;3.28;100.00;101844.41;5114727;27;20537;-55
2023/03/05 07:31:03;;;;;;;8.70;4.55;;;;;;;3.31;100.00;101841.69;5111399;28;20093;-58
2023/03/05 07:33:29;;;;;;;9.82;4.53;;;;;;;3.36;100.00;101842.41;5111011;28;20042;-58
2023/03/05 07:35:54;;;;;;;9.15;4.15;;;;;;;3.39;100.00;101841.47;5116121;27;20545;-56
2023/03/05 07:38:20;;;;;;;7.90;4.57;;;;;;;3.43;100.00;101841.34;5114517;27;20469;-57
2023/03/05 07:40:45;;;;;;;6.75;3.97;;;;;;;3.46;100.00;101835.97;5113564;28;20464;-54
2023/03/05 07:43:10;;;;;;;8.50;3.95;;;;;;;3.48;100.00;101841.19;5111484;27;20023;-57
2023/03/05 07:45:41;;;;;;;7.93;4.30;;;;;;;3.50;100.00;101837.63;5116560;27;20428;-57
2023/03/05 07:48:07;;;;;;;8.30;4.05;;;;;;;3.56;100.00;101838.34;5114261;27;20063;-57
2023/03/05 07:50:33;;;;;;;7.22;3.67;;;;;;;3.57;100.00;101843.53;5110390;27;20040;-57
2023/03/05 07:52:58;;;;;;;9.55;3.90;;;;;;;3.62;100.00;101835.53;5112536;27;20486;-58
2023/03/05 07:55:24;;;;;;;8.15;3.90;;;;;;;3.68;100.00;101840.56;5109691;28;20020;-58
2023/03/05 07:57:49;;;;;;;7.38;3.30;;;;;;;3.73;100.00;101836.03;5110681;28;20115;-56
2023/03/05 08:00:14;;;;;;;6.30;3.80;;;;;;;3.80;100.00;101839.34;5113680;27;20038;-56
2023/03/05 08:02:40;;;;;;;6.05;3.08;;;;;;;3.83;100.00;101831.31;5112058;28;20517;-55
2023/03/05 08:05:05;;;;;;;9.50;3.30;;;;;;;3.85;100.00;101834.78;5112085;28;20024;-56
2023/03/05 08:07:31;;;;;;;8.98;3.40;;;;;;;3.90;100.00;101832.88;5112921;28;20071;-55
2023/03/05 08:09:56;;;;;;;5.47;3.05;;;;;;;3.99;100.00;101827.28;5111204;28;20394;-55
2023/03/05 08:12:22;;;;;;;8.98;3.50;;;;;;;4.05;100.00;101823.63;5111646;28;20482;-57
2023/03/05 08:14:47;;;;;;;8.15;3.25;;;;;;;4.06;99.96;101818.31;5111732;27;20065;-57
2023/03/05 08:17:13;;;;;;;7.00;3.25;;;;;;;4.11;99.83;101820.75;5115427;27;20367;-55
2023/03/05 08:19:38;;;;;;;5.63;3.17;;;;;;;4.19;100.00;101816.09;5112933;27;20024;-56
2023/03/05 08:22:04;;;;;;;8.38;3.80;;;;;;;4.25;100.00;101817.69;5112605;28;20051;-57
2023/03/05 08:24:29;;;;;;;6.57;3.08;;;;;;;4.28;98.84;101814.06;5109294;27;20023;-58
2023/03/05 08:26:57;;;;;;;7.97;3.00;;;;;;;4.30;98.48;101815.75;5112199;27;20386;-54
2023/03/05 08:29:23;;;;;;;4.90;3.00;;;;;;;4.34;99.50;101811.22;5108621;28;20039;-58
2023/03/05 08:31:50;;;;;;;4.28;3.25;;;;;;;4.36;98.12;101809.41;5108827;28;20044;-56
2023/03/05 08:34:16;;;;;;;7.22;2.95;;;;;;;4.38;98.26;101808.44;5111555;27;20035;-58
2023/03/05 08:36:41;;;;;;;4.55;3.13;;;;;;;4.43;97.56;101805.66;5090458;28;20046;-55
2023/03/05 08:39:07;;;;;;;7.80;2.90;;;;;;;4.47;97.67;101802.00;5110305;28;20600;-56
2023/03/05 08:41:33;;;;;;;4.60;2.90;;;;;;;4.51;97.41;101800.09;5111963;27;20040;-54
2023/03/05 08:43:58;;;;;;;3.90;3.00;;;;;;;4.56;97.53;101798.16;5111852;27;20303;-55
2023/03/05 08:46:23;;;;;;;7.35;2.70;;;;;;;4.63;97.07;101794.41;5111630;28;20047;-56
2023/03/05 08:48:49;;;;;;;7.78;2.55;;;;;;;4.70;96.64;101795.06;5111040;27;20509;-58
2023/03/05 08:51:17;;;;;;;4.57;2.50;;;;;;;4.72;96.41;101791.44;5111048;28;20048;-55
2023/03/05 08:53:44;;;;;;;4.97;2.95;;;;;;;4.73;95.71;101785.28;5107877;28;20381;-57
2023/03/05 08:56:09;;;;;;;7.35;2.78;;;;;;;4.72;94.62;101786.19;5105302;27;20088;-57
2023/03/05 08:58:35;;;;;;;4.80;2.17;;;;;;;4.77;95.24;101784.22;5112603;27;20479;-54
2023/03/05 09:01:01;;;;;;;3.28;2.70;;;;;;;4.79;94.88;101784.16;5073332;28;20429;-56
2023/03/05 09:03:26;;;;;;;3.47;2.42;;;;;;;4.88;95.40;101775.06;5087704;28;20054;-57
2023/03/05 09:05:52;;;;;;;4.50;2.63;;;;;;;4.95;96.34;101772.16;5110932;27;20397;-54
2023/03/05 09:08:18;;;;;;;6.22;3.28;;;;;;;4.99;94.64;101775.53;5108661;28;20110;-57
2023/03/05 09:10:44;;;;;;;8.10;2.80;;;;;;;5.08;94.23;101774.31;5106931;28;20496;-57
2023/03/05 09:13:10;;;;;;;3.45;2.30;;;;;;;5.14;93.93;101780.19;5108031;28;20044;-57
2023/03/05 09:15:36;;;;;;;4.13;2.38;;;;;;;5.24;93.30;101769.31;5105569;28;20034;-56
2023/03/05 09:18:01;;;;;;;4.85;2.20;;;;;;;5.27;92.91;101772.69;5110204;27;20121;-54
2023/03/05 09:20:27;;;;;;;4.22;2.22;;;;;;;5.31;92.36;101763.75;5108656;28;20149;-56
2023/03/05 09:22:52;;;;;;;6.03;2.50;;;;;;;5.38;92.27;101759.09;5107541;28;20114;-55
2023/03/05 09:25:18;;;;;;;2.78;2.17;;;;;;;5.45;93.24;101755.28;5109004;28;20542;-57
2023/03/05 09:27:44;;;;;;;3.47;2.78;;;;;;;5.54;92.76;101759.31;5110172;28;20047;-57
2023/03/05 09:30:11;;;;;;;6.43;2.55;;;;;;;5.56;91.29;101755.72;5111085;27;20370;-57
2023/03/05 09:32:36;;;;;;;4.57;2.72;;;;;;;5.63;91.75;101753.69;5107085;28;20040;-56
2023/03/05 09:35:02;;;;;;;3.17;2.72;;;;;;;5.70;91.04;101752.50;5107018;27;20473;-58
2023/03/05 09:37:28;;;;;;;4.60;2.97;;;;;;;5.75;89.89;101752.31;5111247;28;20035;-58
2023/03/05 09:39:54;;;;;;;5.18;3.15;;;;;;;5.91;91.15;101756.03;5109945;28;20102;-56
2023/03/05 09:43:00;;;;;;;7.65;4.13;;;;;;;6.09;90.44;101746.47;5110527;28;20075;-58
2023/03/05 09:45:54;;;;;;;3.97;2.90;;;;;;;6.22;88.08;101751.22;5094934;28;20063;-58
2023/03/05 09:48:41;;;;;;;4.03;2.75;;;;;;;6.27;87.51;101741.34;5107718;28;20051;-57
2023/03/05 09:51:15;;;;;;;4.25;3.00;;;;;;;6.35;86.73;101744.50;5106944;28;20028;-57
2023/03/05 09:53:49;;;;;;;3.58;3.28;;;;;;;6.42;86.47;101738.00;5109288;28;20031;-57
2023/03/05 09:56:20;;;;;;;6.82;2.88;;;;;;;6.48;86.57;101737.72;5110338;28;20028;-57
2023/03/05 09:58:47;;;;;;;3.78;2.97;;;;;;;6.57;86.19;101740.88;5104798;28;20355;-57
2023/03/05 10:01:32;;;;;;;6.82;2.95;;;;;;;6.63;84.44;101730.91;5107048;28;20040;-57
2023/03/05 10:04:12;;;;;;;8.32;3.28;;;;;;;6.71;85.00;101735.84;5097104;28;20130;-55
2023/03/05 10:06:46;;;;;;;4.60;2.15;;;;;;;6.75;82.76;101724.19;5109789;28;20057;-55
2023/03/05 10:09:30;;;;;;;2.22;2.10;;;;;;;6.79;81.64;101724.91;5096356;28;20032;-56
2023/03/05 10:12:23;;;;;;;4.45;2.53;;;;;;;6.88;83.47;101734.19;5098848;28;20047;-57
2023/03/05 10:14:49;;;;;;;5.10;2.60;;;;;;;6.85;82.55;101725.47;5104523;28;20062;-58
2023/03/05 10:17:56;;;;;;;4.55;2.88;;;;;;;6.91;83.48;101720.84;5110371;28;20130;-58
2023/03/05 10:20:46;;;;;;;3.35;2.35;;;;;;;6.91;82.22;101712.91;5103782;28;20035;-56
2023/03/05 10:23:23;;;;;;;3.50;2.30;;;;;;;6.94;80.04;101710.97;5109911;28;20070;-57
2023/03/05 10:26:04;;;;;;;5.07;2.40;;;;;;;6.97;80.42;101710.84;5102328;28;20049;-57
2023/03/05 10:28:44;;;;;;;5.55;4.88;;;;;;;6.98;80.22;101707.28;5103568;28;20656;-57
2023/03/05 10:31:20;;;;;;;5.88;3.20;;;;;;;6.95;78.61;101711.84;5106248;28;20032;-59
2023/03/05 10:33:52;;;;;;;4.82;2.63;;;;;;;6.92;78.18;101701.44;5109290;28;20020;-56
2023/03/05 10:36:31;;;;;;;6.00;2.88;;;;;;;6.90;79.15;101698.84;5109030;28;20035;-58
2023/03/05 10:39:08;;;;;;;;;;;;;;;7.07;82.07;101700.69;5104216;28;20031;-59
2023/03/05 10:41:39;;;;;;;4.72;2.67;;;;;;;6.90;80.19;101704.13;5100122;28;19915;-58
2023/03/05 10:44:15;;;;;;;4.47;1.70;;;;;;;6.72;82.45;101711.13;5108690;28;20385;-59
2023/03/05 10:46:40;;;;;;;2.00;1.50;;;;;;;6.57;84.73;101711.84;5108743;28;20054;-59
2023/03/05 10:49:28;;;;;;;1.65;1.50;;;;;;;6.41;86.24;101709.91;5110318;28;20111;-59
2023/03/05 10:52:05;;;;;;;1.70;1.60;;;;;;;6.22;88.39;101706.38;5105587;28;20040;-57
2023/03/05 10:54:33;;;;;;;1.20;1.10;;;;;;;6.21;89.29;101699.38;5100808;28;20449;-58
2023/03/05 10:57:10;;;;;;;1.08;1.08;;;;;;;6.24;89.41;101694.81;5094894;28;20489;-60
2023/03/05 10:59:36;;;;;;;4.10;1.30;;;;;;;6.24;91.97;101692.19;5114283;28;20027;-59
2023/03/05 11:02:07;;;;;;;1.10;1.00;;;;;;;6.28;91.94;101690.28;5112241;27;20393;-60
2023/03/05 11:04:38;;;;;;;2.90;1.10;;;;;;;6.35;90.45;101681.16;5105734;28;20058;-58
2023/03/05 11:07:15;;;;;;;5.75;1.17;;;;;;;6.40;88.68;101679.16;5096099;28;20044;-60
2023/03/05 11:09:59;;;;;;;1.75;1.10;;;;;;;6.48;89.12;101671.75;5088189;28;20411;-60
2023/03/05 11:12:35;;;;;;;5.88;1.38;;;;;;;6.59;89.14;101665.13;5105914;28;20035;-60
2023/03/05 11:15:12;;;;;;;4.65;1.17;;;;;;;6.64;91.08;101664.00;5111857;28;20043;-59
2023/03/05 11:17:44;;;;;;;2.00;1.10;;;;;;;6.68;89.65;101654.16;5110611;27;20039;-60
2023/03/05 11:20:30;;;;;;;3.30;1.45;;;;;;;6.82;88.99;101656.13;5113510;28;20031;-64
2023/03/05 11:23:02;;;;;;;3.85;2.00;;;;;;;6.94;88.40;101663.44;5105780;28;20066;-59
2023/03/05 11:25:28;;;;;;;4.13;1.50;;;;;;;7.00;86.76;101659.66;5109876;27;20107;-60
2023/03/05 11:27:55;;;;;;;2.30;2.10;;;;;;;7.13;87.44;101652.84;5111925;28;20525;-60
2023/03/05 11:30:25;;;;;;;4.10;2.85;;;;;;;7.36;88.78;101640.25;5110593;27;20100;-59
2023/03/05 11:33:16;;;;;;;2.20;1.73;;;;;;;7.54;87.84;101641.13;5111726;27;20150;-60